Terminal Aerodrome Forecast
Issued by NWS

Home | Current Version | Previous Version | Graphics & Text | Print | Product List | Glossary On
Versions: 1 2 3 4 5 6 7 8 9 10 11 12 13 14 15 16 17 18
000
FTUS43 KIWX 100854 AAB
TAFSBN
TAF AMD
KSBN 100854Z 1009/1106 24010KT P6SM OVC070
      TEMPO 1009/1010 BKN025
     FM102300 28006KT P6SM BKN030
     FM110300 31005KT P6SM BKN035=

USA.gov is the U.S. government's official web portal to all federal, state and local government web resources and services.